createdAt,value
2018-05-24T00:02:20.621Z,4.00
2018-05-24T00:04:48.223Z,3.80
2018-05-24T00:07:15.852Z,3.70
2018-05-24T00:09:44.188Z,3.47
2018-05-24T00:12:11.756Z,3.60
2018-05-24T00:14:39.428Z,3.70
2018-05-24T00:17:07.046Z,3.70
2018-05-24T00:19:37.335Z,3.63
2018-05-24T00:22:04.921Z,3.63
2018-05-24T00:24:32.486Z,3.40
2018-05-24T00:27:23.471Z,4.00
2018-05-24T00:29:51.060Z,4.00
2018-05-24T00:32:19.416Z,3.33
2018-05-24T00:34:46.988Z,3.67
2018-05-24T00:37:14.594Z,3.80
2018-05-24T00:39:42.222Z,3.57
2018-05-24T00:42:09.809Z,3.93
2018-05-24T00:44:37.410Z,4.10
2018-05-24T00:47:05.025Z,4.13
2018-05-24T00:49:33.412Z,4.30
2018-05-24T00:52:01.755Z,3.77
2018-05-24T00:54:29.327Z,3.90
2018-05-24T00:56:56.928Z,3.93
2018-05-24T00:59:25.115Z,3.50
2018-05-24T01:01:53.503Z,3.90
2018-05-24T01:04:21.909Z,3.80
2018-05-24T01:06:49.505Z,3.93
2018-05-24T01:09:17.121Z,4.00
2018-05-24T01:11:44.721Z,3.60
2018-05-24T01:14:12.305Z,3.97
2018-05-24T01:16:40.004Z,4.03
2018-05-24T01:19:07.626Z,4.30
2018-05-24T01:21:35.274Z,3.70
2018-05-24T01:24:02.889Z,3.80
2018-05-24T01:26:30.513Z,3.63
2018-05-24T01:28:58.135Z,3.60
2018-05-24T01:31:26.484Z,3.77
2018-05-24T01:33:54.083Z,3.97
2018-05-24T01:36:22.527Z,3.87
2018-05-24T01:38:50.130Z,3.93
2018-05-24T01:41:17.728Z,3.90
2018-05-24T01:43:45.327Z,3.80
2018-05-24T01:46:12.982Z,3.60
2018-05-24T01:48:40.601Z,3.87
2018-05-24T01:51:08.963Z,3.67
2018-05-24T01:53:36.569Z,3.80
2018-05-24T01:56:04.248Z,4.10
2018-05-24T01:58:31.909Z,3.80
2018-05-24T02:00:59.471Z,3.60
2018-05-24T02:03:28.032Z,3.67
2018-05-24T02:05:56.415Z,3.83
2018-05-24T02:08:24.030Z,3.53
2018-05-24T02:10:51.612Z,3.93
2018-05-24T02:13:19.268Z,3.60
2018-05-24T02:15:46.904Z,3.60
2018-05-24T02:18:14.552Z,4.03
2018-05-24T02:20:42.159Z,3.40
2018-05-24T02:23:09.772Z,3.80
2018-05-24T02:25:38.157Z,3.60
2018-05-24T02:28:06.509Z,3.70
2018-05-24T02:30:34.489Z,3.60
2018-05-24T02:33:02.083Z,3.27
2018-05-24T02:35:29.689Z,3.40
2018-05-24T02:37:57.277Z,3.60
2018-05-24T02:40:24.880Z,3.40
2018-05-24T02:42:53.288Z,3.40
2018-05-24T02:45:20.939Z,3.30
2018-05-24T02:47:48.934Z,3.20
2018-05-24T02:50:16.546Z,3.20
2018-05-24T02:52:44.159Z,3.57
2018-05-24T02:55:11.779Z,3.27
2018-05-24T02:57:39.378Z,3.30
2018-05-24T03:00:07.754Z,3.10
2018-05-24T03:02:36.108Z,3.00
2018-05-24T03:05:03.721Z,2.83
2018-05-24T03:07:31.401Z,3.10
2018-05-24T03:09:58.999Z,3.30
2018-05-24T03:12:26.627Z,3.07
2018-05-24T03:14:54.227Z,3.00
2018-05-24T03:17:21.880Z,3.27
2018-05-24T03:19:49.509Z,3.33
2018-05-24T03:22:17.134Z,3.37
2018-05-24T03:24:44.729Z,3.60
2018-05-24T03:27:13.071Z,3.83
2018-05-24T03:29:41.515Z,3.60
2018-05-24T03:32:09.132Z,3.63
2018-05-24T03:34:36.756Z,3.73
2018-05-24T03:37:04.430Z,3.43
2018-05-24T03:39:32.029Z,3.60
2018-05-24T03:41:59.668Z,3.60
2018-05-24T03:44:27.298Z,3.90
2018-05-24T03:46:55.683Z,3.60
2018-05-24T03:49:23.304Z,3.80
2018-05-24T03:51:50.882Z,3.40
2018-05-24T03:54:18.532Z,3.67
2018-05-24T03:56:46.154Z,3.63
2018-05-24T04:02:45.376Z,3.53
2018-05-24T04:05:13.737Z,3.60
2018-05-24T04:07:41.325Z,3.50
2018-05-24T04:10:08.942Z,3.47
2018-05-24T04:12:36.523Z,3.60
2018-05-24T04:15:04.124Z,3.60
2018-05-24T04:17:31.700Z,4.00
2018-05-24T04:20:00.060Z,3.33
2018-05-24T04:22:27.667Z,4.10
2018-05-24T04:24:55.287Z,3.63
2018-05-24T04:27:22.896Z,3.43
2018-05-24T04:29:50.480Z,3.53
2018-05-24T04:32:18.820Z,3.73
2018-05-24T04:34:46.392Z,3.67
2018-05-24T04:37:14.026Z,3.80
2018-05-24T04:39:41.636Z,4.10
2018-05-24T04:42:09.278Z,4.03
2018-05-24T04:44:36.920Z,4.23
2018-05-24T04:47:04.505Z,3.90
2018-05-24T04:49:32.173Z,3.63
2018-05-24T04:51:59.828Z,3.70
2018-05-24T04:54:27.533Z,3.77
2018-05-24T04:56:55.893Z,4.03
2018-05-24T04:59:24.393Z,4.27
2018-05-24T05:01:52.036Z,3.53
2018-05-24T05:04:19.659Z,4.07
2018-05-24T05:06:47.734Z,4.73
2018-05-24T05:09:16.113Z,3.90
2018-05-24T05:11:45.208Z,3.93
2018-05-24T05:14:12.828Z,4.10
2018-05-24T05:16:40.434Z,4.27
2018-05-24T05:19:08.008Z,4.20
2018-05-24T05:21:36.357Z,4.90
2018-05-24T05:24:04.287Z,4.27
2018-05-24T05:26:32.779Z,4.33
2018-05-24T05:29:00.342Z,4.20
2018-05-24T05:31:27.943Z,3.90
2018-05-24T05:33:55.544Z,3.97
2018-05-24T05:36:24.415Z,4.30
2018-05-24T05:38:52.043Z,4.40
2018-05-24T05:41:19.697Z,4.70
2018-05-24T05:43:47.925Z,4.40
2018-05-24T05:46:15.526Z,4.20
2018-05-24T05:48:43.909Z,4.50
2018-05-24T05:51:12.287Z,4.87
2018-05-24T05:53:40.658Z,4.70
2018-05-24T05:56:08.336Z,4.80
2018-05-24T05:58:35.922Z,4.77
2018-05-24T06:01:03.566Z,4.40
2018-05-24T06:03:33.238Z,4.83
2018-05-24T06:06:02.457Z,4.80
2018-05-24T06:08:30.985Z,4.60
2018-05-24T06:10:58.564Z,5.07
2018-05-24T06:13:26.181Z,4.97
2018-05-24T06:15:54.539Z,4.80
2018-05-24T06:18:23.173Z,4.70
2018-05-24T06:20:51.565Z,4.87
2018-05-24T06:23:19.208Z,4.80
2018-05-24T06:25:46.832Z,5.17
2018-05-24T06:28:14.423Z,5.27
2018-05-24T06:30:42.018Z,5.13
2018-05-24T06:33:09.618Z,4.90
2018-05-24T06:35:37.256Z,5.03
2018-05-24T06:38:05.628Z,6.00
2018-05-24T06:40:34.068Z,5.40
2018-05-24T06:43:01.636Z,5.33
2018-05-24T06:45:29.242Z,5.50
2018-05-24T06:47:57.624Z,5.80
2018-05-24T06:50:26.015Z,5.93
2018-05-24T06:52:54.365Z,5.83
2018-05-24T06:55:22.072Z,6.60
2018-05-24T06:57:50.355Z,6.67
2018-05-24T07:00:18.048Z,7.23
2018-05-24T07:02:45.677Z,7.43
2018-05-24T07:05:14.100Z,7.03
2018-05-24T07:07:41.701Z,7.27
2018-05-24T07:10:09.329Z,6.67
2018-05-24T07:12:36.917Z,6.70
2018-05-24T07:15:04.508Z,7.20
2018-05-24T07:17:32.884Z,7.10
2018-05-24T07:20:00.530Z,7.17
2018-05-24T07:22:28.190Z,7.53
2018-05-24T07:24:55.824Z,7.00
2018-05-24T07:27:23.437Z,7.43
2018-05-24T07:29:50.999Z,6.90
2018-05-24T07:32:18.601Z,6.60
2018-05-24T07:34:55.009Z,6.80
2018-05-24T07:37:22.619Z,6.50
2018-05-24T07:39:50.522Z,7.27
2018-05-24T07:42:17.979Z,7.03
2018-05-24T07:44:47.261Z,7.40
2018-05-24T07:47:19.431Z,7.33
2018-05-24T07:49:47.799Z,6.97
2018-05-24T07:52:15.402Z,7.30
2018-05-24T07:54:43.101Z,7.50
2018-05-24T07:57:12.310Z,7.40
2018-05-24T07:59:39.907Z,7.20
2018-05-24T08:02:07.536Z,7.17
2018-05-24T08:04:35.094Z,7.43
2018-05-24T08:07:02.686Z,7.70
2018-05-24T08:09:30.315Z,7.67
2018-05-24T08:11:57.924Z,7.90
2018-05-24T08:14:25.524Z,8.23
2018-05-24T08:16:53.502Z,7.90
2018-05-24T08:19:21.079Z,8.03
2018-05-24T08:21:48.665Z,8.73
2018-05-24T08:24:16.241Z,8.07
2018-05-24T08:26:43.906Z,8.67
2018-05-24T08:29:11.535Z,9.10
2018-05-24T08:31:39.131Z,8.73
2018-05-24T08:34:06.759Z,8.63
2018-05-24T08:36:34.371Z,9.37
2018-05-24T08:39:02.012Z,9.10
2018-05-24T08:41:29.906Z,8.67
2018-05-24T08:43:57.556Z,9.50
2018-05-24T08:46:25.162Z,9.43
2018-05-24T08:48:52.768Z,9.00
2018-05-24T08:51:20.352Z,8.10
2018-05-24T08:53:48.030Z,8.77
2018-05-24T08:56:15.655Z,8.57
2018-05-24T08:58:43.339Z,8.37
2018-05-24T09:01:10.949Z,8.60
2018-05-24T09:03:38.573Z,9.20
2018-05-24T09:06:06.209Z,8.93
2018-05-24T09:08:35.363Z,8.73
2018-05-24T09:35:55.248Z,8.17
2018-05-24T09:38:22.864Z,8.30
2018-05-24T09:41:21.999Z,8.93
2018-05-24T09:43:52.870Z,9.03
2018-05-24T09:46:40.805Z,9.97
2018-05-24T09:49:21.283Z,8.37
2018-05-24T09:52:51.629Z,10.10
2018-05-24T10:03:16.325Z,11.43
2018-05-24T10:09:04.796Z,9.90
2018-05-24T10:12:05.423Z,9.97
2018-05-24T10:15:11.253Z,10.20
2018-05-24T10:33:00.766Z,12.10
2018-05-24T10:35:28.388Z,8.03
2018-05-24T10:45:23.528Z,9.20
2018-05-24T12:53:00.854Z,16.03
2018-05-24T12:55:28.466Z,17.10
2018-05-24T12:57:56.084Z,16.57
2018-05-24T13:00:23.667Z,16.67
2018-05-24T13:02:51.266Z,16.30
2018-05-24T13:05:19.650Z,16.27
2018-05-24T13:07:47.684Z,16.07
2018-05-24T13:10:16.099Z,16.40
2018-05-24T13:12:43.709Z,16.57
2018-05-24T13:15:11.698Z,15.73
2018-05-24T13:17:40.281Z,14.93
2018-05-24T13:20:08.835Z,15.67
2018-05-24T13:22:36.486Z,15.33
2018-05-24T13:25:04.146Z,14.90
2018-05-24T13:27:31.793Z,13.73
2018-05-24T13:29:59.425Z,14.47
2018-05-24T13:32:27.298Z,14.50
2018-05-24T13:37:32.450Z,12.13
2018-05-24T13:40:11.386Z,11.77
2018-05-24T13:42:39.811Z,11.47
2018-05-24T13:45:07.553Z,11.53
2018-05-24T13:47:36.063Z,11.50
2018-05-24T13:50:03.904Z,10.93
2018-05-24T13:52:32.449Z,10.67
2018-05-24T13:55:01.774Z,10.87
2018-05-24T14:01:48.732Z,11.47
2018-05-24T14:06:52.964Z,11.70
2018-05-24T14:09:21.599Z,10.40
2018-05-24T14:11:49.249Z,9.80
2018-05-24T14:14:16.872Z,10.47
2018-05-24T14:16:44.714Z,10.13
2018-05-24T14:19:13.260Z,11.00
2018-05-24T14:21:40.956Z,10.43
2018-05-24T14:24:08.589Z,10.07
2018-05-24T14:26:36.176Z,10.20
2018-05-24T14:29:04.103Z,10.30
2018-05-24T14:31:32.712Z,10.30
2018-05-24T14:34:17.971Z,11.23
2018-05-24T14:36:45.881Z,11.63
2018-05-24T14:39:13.549Z,11.67
2018-05-24T14:41:44.987Z,11.20
2018-05-24T14:44:12.817Z,9.90
2018-05-24T14:46:40.446Z,9.63
2018-05-24T14:49:08.050Z,9.10
2018-05-24T14:51:38.134Z,7.90
2018-05-24T14:54:05.878Z,7.20
2018-05-24T14:56:33.483Z,6.97
2018-05-24T14:59:01.086Z,5.70
2018-05-24T15:01:29.465Z,6.00
2018-05-24T15:03:57.811Z,5.87
2018-05-24T15:06:29.291Z,6.73
2018-05-24T15:08:56.917Z,5.77
2018-05-24T15:11:24.541Z,5.90
2018-05-24T15:13:53.181Z,6.43
2018-05-24T15:16:20.821Z,7.00
2018-05-24T15:18:48.389Z,6.43
2018-05-24T15:21:15.999Z,6.23
2018-05-24T15:23:44.286Z,7.20
2018-05-24T15:26:12.687Z,6.73
2018-05-24T15:28:41.073Z,6.93
2018-05-24T15:31:09.426Z,7.47
2018-05-24T15:33:37.046Z,7.57
2018-05-24T15:36:04.629Z,7.90
2018-05-24T15:38:32.261Z,8.53
2018-05-24T15:40:59.860Z,8.40
2018-05-24T15:43:28.084Z,8.03
2018-05-24T15:45:56.445Z,9.03
2018-05-24T15:48:24.020Z,9.67
2018-05-24T15:50:52.401Z,9.63
2018-05-24T15:53:20.062Z,9.40
2018-05-24T15:55:47.690Z,9.60
2018-05-24T15:58:15.369Z,9.33
2018-05-24T16:00:42.945Z,9.50
2018-05-24T16:03:10.583Z,9.33
2018-05-24T16:05:38.211Z,9.43
2018-05-24T16:08:05.792Z,9.40
2018-05-24T16:10:34.191Z,9.70
2018-05-24T16:13:01.825Z,10.23
2018-05-24T16:15:31.236Z,9.30
2018-05-24T16:17:59.583Z,9.63
2018-05-24T16:20:27.617Z,9.93
2018-05-24T16:22:56.751Z,10.67
2018-05-24T16:25:24.362Z,11.17
2018-05-24T16:27:52.734Z,10.17
2018-05-24T16:30:21.144Z,10.30
2018-05-24T16:32:48.746Z,10.60
2018-05-24T16:35:16.920Z,10.80
2018-05-24T16:37:44.621Z,11.40
2018-05-24T16:40:12.221Z,11.30
2018-05-24T16:42:39.865Z,11.17
2018-05-24T16:45:08.228Z,11.80
2018-05-24T16:47:35.828Z,11.27
2018-05-24T16:50:03.455Z,11.83
2018-05-24T16:52:33.970Z,11.73
2018-05-24T16:55:02.816Z,11.47
2018-05-24T16:57:30.510Z,10.37
2018-05-24T16:59:58.093Z,11.73
2018-05-24T17:02:26.479Z,11.57
2018-05-24T17:04:54.072Z,12.07
2018-05-24T17:07:22.425Z,11.37
2018-05-24T17:09:50.025Z,11.53
2018-05-24T17:12:17.668Z,11.63
2018-05-24T17:14:45.293Z,11.90
2018-05-24T17:17:12.944Z,11.97
2018-05-24T17:19:40.724Z,11.90
2018-05-24T17:22:09.090Z,12.60
2018-05-24T17:24:36.680Z,12.37
2018-05-24T17:27:04.309Z,12.67
2018-05-24T17:29:32.747Z,12.20
2018-05-24T17:32:00.387Z,12.20
2018-05-24T17:34:28.043Z,13.27
2018-05-24T17:36:56.383Z,14.67
2018-05-24T17:39:23.983Z,13.73
2018-05-24T17:41:52.346Z,14.13
2018-05-24T17:44:20.695Z,14.40
2018-05-24T17:46:48.291Z,13.37
2018-05-24T17:49:15.882Z,14.57
2018-05-24T17:51:44.262Z,15.20
2018-05-24T17:54:12.645Z,14.23
2018-05-24T17:56:41.043Z,14.93
2018-05-24T17:59:08.644Z,14.67
2018-05-24T18:01:36.216Z,16.10
2018-05-24T18:04:03.823Z,16.47
2018-05-24T18:06:31.436Z,15.90
2018-05-24T18:08:59.046Z,16.40
2018-05-24T18:11:27.438Z,16.93
2018-05-24T18:13:55.847Z,16.40
2018-05-24T18:16:25.196Z,16.90
2018-05-24T18:18:52.816Z,17.90
2018-05-24T18:21:20.468Z,17.33
2018-05-24T18:23:50.240Z,17.63
2018-05-24T18:26:17.870Z,17.23
2018-05-24T18:28:45.503Z,17.53
2018-05-24T18:31:13.853Z,17.03
2018-05-24T18:33:41.427Z,17.10
2018-05-24T18:36:09.074Z,17.37
2018-05-24T18:38:36.659Z,17.27
2018-05-24T18:41:04.235Z,17.10
2018-05-24T18:43:31.826Z,18.30
2018-05-24T18:45:59.556Z,17.43
2018-05-24T18:48:27.960Z,16.50
2018-05-24T18:50:56.335Z,17.00
2018-05-24T18:53:24.701Z,16.27
2018-05-24T18:55:52.328Z,16.70
2018-05-24T18:58:20.081Z,17.27
2018-05-24T19:00:47.680Z,17.20
2018-05-24T19:03:15.339Z,16.60
2018-05-24T19:05:42.961Z,16.03
2018-05-24T19:08:11.451Z,16.67
2018-05-24T19:10:39.125Z,16.57
2018-05-24T19:13:06.754Z,14.97
2018-05-24T19:15:34.352Z,15.40
2018-05-24T19:18:01.977Z,14.93
2018-05-24T19:20:29.584Z,14.80
2018-05-24T19:22:58.047Z,14.20
2018-05-24T19:25:25.648Z,13.83
2018-05-24T19:27:53.240Z,13.57
2018-05-24T19:30:20.827Z,14.20
2018-05-24T19:32:49.172Z,13.77
2018-05-24T19:35:16.869Z,14.13
2018-05-24T19:37:44.560Z,13.23
2018-05-24T19:40:12.434Z,13.57
2018-05-24T19:42:42.785Z,13.73
2018-05-24T19:45:10.461Z,13.63
2018-05-24T19:47:38.073Z,12.57
2018-05-24T19:50:05.739Z,14.03
2018-05-24T19:52:33.489Z,14.10
2018-05-24T19:55:01.566Z,14.67
2018-05-24T19:57:30.602Z,14.13
2018-05-24T19:59:58.996Z,14.67
2018-05-24T20:02:28.185Z,14.87
2018-05-24T20:04:55.825Z,15.27
2018-05-24T20:07:23.468Z,15.33
2018-05-24T20:09:51.109Z,15.57
2018-05-24T20:12:18.743Z,15.57
2018-05-24T20:14:46.399Z,15.60
2018-05-24T20:17:22.203Z,16.97
2018-05-24T20:19:50.729Z,17.37
2018-05-24T20:22:21.674Z,17.07
2018-05-24T20:24:49.296Z,17.00
2018-05-24T20:27:16.906Z,15.90
2018-05-24T20:29:44.590Z,16.93
2018-05-24T20:32:12.227Z,17.77
2018-05-24T20:34:39.873Z,17.73
2018-05-24T20:37:07.505Z,17.27
2018-05-24T20:39:35.861Z,17.13
2018-05-24T20:42:03.602Z,17.23
2018-05-24T20:44:31.204Z,17.73
2018-05-24T20:46:59.577Z,18.20
2018-05-24T20:49:27.170Z,18.70
2018-05-24T20:51:55.610Z,17.47
2018-05-24T20:54:23.235Z,18.80
2018-05-24T20:56:50.869Z,18.67
2018-05-24T20:59:19.245Z,19.20
2018-05-24T21:01:46.940Z,19.77
2018-05-24T21:04:14.520Z,18.53
2018-05-24T21:06:42.145Z,19.00
2018-05-24T21:09:09.788Z,18.60
2018-05-24T21:11:37.396Z,18.97
2018-05-24T21:14:06.084Z,19.17
2018-05-24T21:16:35.382Z,18.60
2018-05-24T21:19:04.583Z,19.60
2018-05-24T21:21:33.969Z,18.23
2018-05-24T21:24:02.378Z,19.27
2018-05-24T21:26:30.757Z,18.30
2018-05-24T21:28:59.117Z,18.40
2018-05-24T21:31:26.723Z,18.80
2018-05-24T21:33:57.123Z,18.20
2018-05-24T21:36:24.772Z,18.73
2018-05-24T21:38:52.403Z,17.40
2018-05-24T21:41:20.875Z,18.63
2018-05-24T21:43:48.511Z,18.40
2018-05-24T21:46:17.036Z,18.40
2018-05-24T21:48:45.666Z,17.97
2018-05-24T21:51:17.129Z,18.77
2018-05-24T21:53:46.564Z,17.90
2018-05-24T21:56:14.206Z,17.97
2018-05-24T21:58:41.813Z,18.30
2018-05-24T22:01:09.447Z,18.30
2018-05-24T22:03:42.487Z,17.67
2018-05-24T22:06:10.082Z,18.37
2018-05-24T22:08:37.724Z,18.93
2018-05-24T22:11:05.311Z,18.93
2018-05-24T22:13:32.990Z,17.43
2018-05-24T22:16:01.392Z,18.20
2018-05-24T22:18:29.028Z,18.10
2018-05-24T22:20:56.664Z,19.00
2018-05-24T22:23:24.276Z,19.10
2018-05-24T22:25:52.968Z,18.90
2018-05-24T22:28:20.607Z,18.77
2018-05-24T22:30:48.221Z,19.77
2018-05-24T22:33:16.576Z,19.13
2018-05-24T22:35:44.167Z,20.03
2018-05-24T22:38:11.832Z,19.97
2018-05-24T22:40:40.211Z,20.10
2018-05-24T22:43:08.555Z,19.80
2018-05-24T22:45:36.160Z,20.43
2018-05-24T22:48:04.563Z,21.73
2018-05-24T22:50:32.194Z,20.53
2018-05-24T22:53:00.607Z,20.90
2018-05-24T22:55:28.239Z,20.83
2018-05-24T22:57:55.864Z,21.73
2018-05-24T23:00:23.488Z,22.63
2018-05-24T23:02:51.838Z,22.33
2018-05-24T23:05:19.559Z,23.47
2018-05-24T23:07:47.180Z,23.57
2018-05-24T23:10:14.802Z,23.17
2018-05-24T23:12:42.425Z,23.10
2018-05-24T23:15:10.018Z,24.30
2018-05-24T23:17:37.624Z,23.53
2018-05-24T23:20:05.207Z,24.50
2018-05-24T23:22:38.742Z,25.57
2018-05-24T23:25:06.366Z,23.73
2018-05-24T23:27:34.035Z,24.37
2018-05-24T23:30:01.618Z,24.90
2018-05-24T23:32:30.014Z,24.80
2018-05-24T23:34:58.401Z,25.57
2018-05-24T23:37:26.029Z,25.70
2018-05-24T23:39:53.600Z,26.17
2018-05-24T23:42:21.178Z,26.50
2018-05-24T23:44:48.848Z,27.30
2018-05-24T23:47:16.420Z,26.13
2018-05-24T23:49:45.768Z,26.63
2018-05-24T23:52:13.358Z,26.37
2018-05-24T23:54:40.938Z,26.77
2018-05-24T23:57:08.557Z,29.13
2018-05-24T23:59:36.168Z,27.83
